createdAt,value
2017-11-23T00:00:10.801Z,71.84
2017-11-23T00:02:39.082Z,71.96
2017-11-23T00:05:08.265Z,72.12
2017-11-23T00:07:36.546Z,72.32
2017-11-23T00:10:05.015Z,72.26
2017-11-23T00:12:33.295Z,72.29
2017-11-23T00:15:01.593Z,72.03
2017-11-23T00:17:29.855Z,72.08
2017-11-23T00:19:58.180Z,72.04
2017-11-23T00:22:26.474Z,72.29
2017-11-23T00:24:54.753Z,72.47
2017-11-23T00:27:23.057Z,72.46
2017-11-23T00:29:51.341Z,72.51
2017-11-23T00:32:19.680Z,72.44
2017-11-23T00:34:47.945Z,72.55
2017-11-23T00:37:16.216Z,72.58
2017-11-23T00:39:44.472Z,72.67
2017-11-23T00:42:12.765Z,72.91
2017-11-23T00:44:41.018Z,72.89
2017-11-23T00:47:09.321Z,72.79
2017-11-23T00:49:37.645Z,72.88
2017-11-23T00:52:05.939Z,72.99
2017-11-23T00:54:34.218Z,73.33
2017-11-23T00:57:02.481Z,73.48
2017-11-23T00:59:30.760Z,73.79
2017-11-23T01:01:59.009Z,73.53
2017-11-23T01:04:28.289Z,73.56
2017-11-23T01:06:56.626Z,73.76
2017-11-23T01:09:25.334Z,73.90
2017-11-23T01:11:53.581Z,74.28
2017-11-23T01:14:21.853Z,74.31
2017-11-23T01:16:50.160Z,74.89
2017-11-23T01:19:18.435Z,74.75
2017-11-23T01:21:48.632Z,74.21
2017-11-23T01:24:16.879Z,73.95
2017-11-23T01:26:45.170Z,73.94
2017-11-23T01:29:13.426Z,73.52
2017-11-23T01:31:41.709Z,73.56
2017-11-23T01:34:09.969Z,73.41
2017-11-23T01:36:38.240Z,73.26
2017-11-23T01:39:06.645Z,73.49
2017-11-23T01:41:34.973Z,73.47
2017-11-23T01:44:03.251Z,73.97
2017-11-23T01:46:31.513Z,74.42
2017-11-23T01:48:59.837Z,74.50
2017-11-23T01:51:28.100Z,74.41
2017-11-23T01:53:56.515Z,73.94
2017-11-23T01:56:24.791Z,73.97
2017-11-23T01:58:53.757Z,74.27
2017-11-23T02:01:22.343Z,74.28
2017-11-23T02:03:50.672Z,76.00
2017-11-23T02:06:18.940Z,75.80
2017-11-23T02:08:47.225Z,75.75
2017-11-23T02:11:15.543Z,75.43
2017-11-23T02:13:43.821Z,74.95
2017-11-23T02:16:12.128Z,74.91
2017-11-23T02:18:40.380Z,75.07
2017-11-23T02:21:08.782Z,75.85
2017-11-23T02:23:37.058Z,76.45
2017-11-23T02:26:05.320Z,75.77
2017-11-23T02:28:33.661Z,75.38
2017-11-23T02:31:01.895Z,75.49
2017-11-23T02:33:30.204Z,75.80
2017-11-23T02:35:58.462Z,75.99
2017-11-23T02:38:27.075Z,75.83
2017-11-23T02:40:55.351Z,75.68
2017-11-23T02:43:23.619Z,75.34
2017-11-23T02:45:51.926Z,75.03
2017-11-23T02:48:20.234Z,74.83
2017-11-23T02:50:48.495Z,74.59
2017-11-23T02:53:16.753Z,74.62
2017-11-23T02:55:45.880Z,74.80
2017-11-23T02:58:14.158Z,75.14
2017-11-23T03:00:42.425Z,75.65
2017-11-23T03:03:10.725Z,75.64
2017-11-23T03:05:38.988Z,75.42
2017-11-23T03:08:07.677Z,75.07
2017-11-23T03:10:35.944Z,75.09
2017-11-23T03:13:04.198Z,75.09
2017-11-23T03:15:32.489Z,75.51
2017-11-23T03:18:00.753Z,75.78
2017-11-23T03:20:29.054Z,75.54
2017-11-23T03:22:57.317Z,75.45
2017-11-23T03:25:25.612Z,75.52
2017-11-23T03:27:53.872Z,75.48
2017-11-23T03:30:22.167Z,75.73
2017-11-23T03:32:50.525Z,75.60
2017-11-23T03:35:18.946Z,75.62
2017-11-23T03:37:47.199Z,75.81
2017-11-23T03:40:15.453Z,75.94
2017-11-23T03:42:43.736Z,75.96
2017-11-23T03:45:12.020Z,76.02
2017-11-23T03:47:40.328Z,76.38
2017-11-23T03:50:08.776Z,76.18
2017-11-23T03:52:37.093Z,75.91
2017-11-23T03:55:05.880Z,75.99
2017-11-23T03:57:34.189Z,76.15
2017-11-23T04:00:02.480Z,76.13
2017-11-23T04:02:30.751Z,75.88
2017-11-23T04:04:59.140Z,76.26
2017-11-23T04:07:27.395Z,76.24
2017-11-23T04:09:55.648Z,76.45
2017-11-23T04:12:23.941Z,76.87
2017-11-23T04:14:52.232Z,76.77
2017-11-23T04:17:20.689Z,76.39
2017-11-23T04:19:48.948Z,76.32
2017-11-23T04:22:17.222Z,76.87
2017-11-23T04:24:45.528Z,76.80
2017-11-23T04:27:13.811Z,76.86
2017-11-23T04:29:42.076Z,77.02
2017-11-23T04:32:10.331Z,77.16
2017-11-23T04:34:39.581Z,76.91
2017-11-23T04:37:07.839Z,77.02
2017-11-23T04:39:36.104Z,76.62
2017-11-23T04:42:04.950Z,76.62
2017-11-23T04:44:33.208Z,77.20
2017-11-23T04:47:01.560Z,77.19
2017-11-23T04:49:29.815Z,76.93
2017-11-23T04:51:58.186Z,76.86
2017-11-23T04:54:31.892Z,77.04
2017-11-23T04:57:00.157Z,76.92
2017-11-23T04:59:28.444Z,76.91
2017-11-23T05:01:57.016Z,77.05
2017-11-23T05:04:26.203Z,77.49
2017-11-23T05:06:54.471Z,77.47
2017-11-23T05:09:22.776Z,77.33
2017-11-23T05:11:51.087Z,77.23
2017-11-23T05:14:19.383Z,77.10
2017-11-23T05:16:47.649Z,77.12
2017-11-23T05:19:16.301Z,77.19
2017-11-23T05:21:44.550Z,77.02
2017-11-23T05:24:12.797Z,76.88
2017-11-23T05:26:41.082Z,76.72
2017-11-23T05:29:09.365Z,76.59
2017-11-23T05:31:37.785Z,76.97
2017-11-23T05:34:06.016Z,76.76
2017-11-23T05:36:34.297Z,77.10
2017-11-23T05:39:02.595Z,76.85
2017-11-23T05:41:31.272Z,76.96
2017-11-23T05:43:59.548Z,76.96
2017-11-23T05:46:27.829Z,76.92
2017-11-23T05:48:56.105Z,77.10
2017-11-23T05:51:24.376Z,77.48
2017-11-23T05:53:52.684Z,77.12
2017-11-23T05:56:21.010Z,76.80
2017-11-23T05:58:49.312Z,76.79
2017-11-23T06:01:17.587Z,76.61
2017-11-23T06:03:45.881Z,76.26
2017-11-23T06:06:14.140Z,76.16
2017-11-23T06:08:42.465Z,76.26
2017-11-23T06:11:10.721Z,76.04
2017-11-23T06:13:38.979Z,76.38
2017-11-23T06:16:07.264Z,76.59
2017-11-23T06:18:35.548Z,76.62
2017-11-23T06:21:04.837Z,76.91
2017-11-23T06:23:33.279Z,76.84
2017-11-23T06:26:02.022Z,76.81
2017-11-23T06:28:30.296Z,77.03
2017-11-23T06:30:58.625Z,76.89
2017-11-23T06:33:27.010Z,76.81
2017-11-23T06:35:55.260Z,76.92
2017-11-23T06:38:23.561Z,76.94
2017-11-23T06:40:51.950Z,76.72
2017-11-23T06:43:20.219Z,76.85
2017-11-23T06:45:48.477Z,76.37
2017-11-23T06:48:16.786Z,76.62
2017-11-23T06:50:45.071Z,76.75
2017-11-23T06:53:13.328Z,76.66
2017-11-23T06:55:41.669Z,76.76
2017-11-23T06:58:09.954Z,76.98
2017-11-23T07:00:38.226Z,77.49
2017-11-23T07:03:06.595Z,77.43
2017-11-23T07:05:35.007Z,77.70
2017-11-23T07:08:03.293Z,77.91
2017-11-23T07:10:31.575Z,78.09
2017-11-23T07:12:59.886Z,77.61
2017-11-23T07:15:28.197Z,77.17
2017-11-23T07:18:00.322Z,77.23
2017-11-23T07:20:29.416Z,77.15
2017-11-23T07:22:57.712Z,76.92
2017-11-23T07:25:26.020Z,76.56
2017-11-23T07:27:54.390Z,76.48
2017-11-23T07:30:22.682Z,76.17
2017-11-23T07:32:51.468Z,75.78
2017-11-23T07:35:19.737Z,75.37
2017-11-23T07:37:48.023Z,75.12
2017-11-23T07:40:16.338Z,74.85
2017-11-23T07:42:44.609Z,74.41
2017-11-23T07:45:12.881Z,74.15
2017-11-23T07:47:41.195Z,74.22
2017-11-23T07:50:09.491Z,73.75
2017-11-23T07:52:37.754Z,73.71
2017-11-23T07:55:06.068Z,73.75
2017-11-23T07:57:34.344Z,73.40
2017-11-23T08:00:02.629Z,72.58
2017-11-23T08:02:31.122Z,72.44
2017-11-23T08:04:59.742Z,72.21
2017-11-23T08:07:28.914Z,71.92
2017-11-23T08:09:57.175Z,72.03
2017-11-23T08:12:25.501Z,71.98
2017-11-23T08:14:54.013Z,71.83
2017-11-23T08:17:22.301Z,71.88
2017-11-23T08:19:50.683Z,71.44
2017-11-23T08:22:18.963Z,71.09
2017-11-23T08:24:47.291Z,70.44
2017-11-23T08:27:15.573Z,70.14
2017-11-23T08:29:43.856Z,69.88
2017-11-23T08:32:12.222Z,69.87
2017-11-23T08:34:40.537Z,69.77
2017-11-23T08:37:08.868Z,69.67
2017-11-23T08:39:37.154Z,69.52
2017-11-23T08:42:05.481Z,69.14
2017-11-23T08:44:33.781Z,67.98
2017-11-23T08:47:02.081Z,67.74
2017-11-23T08:49:30.384Z,67.30
2017-11-23T08:51:58.678Z,66.76
2017-11-23T08:54:32.881Z,66.80
2017-11-23T08:57:01.794Z,66.16
2017-11-23T08:59:30.073Z,65.95
2017-11-23T09:01:59.279Z,65.45
2017-11-23T09:04:27.529Z,65.08
2017-11-23T09:06:55.907Z,65.38
2017-11-23T09:09:24.206Z,64.92
2017-11-23T09:11:52.561Z,64.53
2017-11-23T09:14:20.841Z,64.60
2017-11-23T09:16:49.118Z,64.30
2017-11-23T09:19:17.447Z,63.86
2017-11-23T09:21:46.344Z,64.05
2017-11-23T09:24:14.632Z,63.87
2017-11-23T09:26:42.938Z,63.44
2017-11-23T09:29:11.220Z,63.48
2017-11-23T09:31:39.524Z,63.18
2017-11-23T09:34:07.836Z,62.89
2017-11-23T09:36:36.092Z,62.62
2017-11-23T09:39:04.358Z,62.03
2017-11-23T09:41:33.672Z,61.80
2017-11-23T09:44:01.940Z,61.51
2017-11-23T09:46:30.237Z,61.17
2017-11-23T09:48:58.548Z,60.80
2017-11-23T09:51:26.911Z,60.69
2017-11-23T09:53:55.212Z,60.77
2017-11-23T09:56:23.463Z,60.57
2017-11-23T09:58:51.749Z,60.34
2017-11-23T10:01:20.008Z,59.66
2017-11-23T10:03:48.315Z,59.34
2017-11-23T10:06:16.620Z,59.31
2017-11-23T10:08:44.925Z,59.45
2017-11-23T10:11:13.197Z,58.89
2017-11-23T10:13:41.551Z,58.65
2017-11-23T10:16:09.921Z,58.67
2017-11-23T10:18:38.187Z,58.66
2017-11-23T10:21:06.593Z,58.57
2017-11-23T10:23:34.865Z,58.37
2017-11-23T10:26:03.164Z,58.35
2017-11-23T10:28:31.435Z,58.54
2017-11-23T10:30:59.737Z,58.45
2017-11-23T10:33:28.040Z,58.32
2017-11-23T10:35:58.367Z,58.29
2017-11-23T10:38:26.654Z,57.88
2017-11-23T10:40:54.993Z,57.77
2017-11-23T10:43:23.249Z,57.28
2017-11-23T10:45:51.533Z,56.91
2017-11-23T10:48:31.537Z,56.52
2017-11-23T10:50:59.953Z,56.00
2017-11-23T10:53:28.191Z,55.74
2017-11-23T10:55:56.493Z,55.57
2017-11-23T10:58:25.051Z,56.10
2017-11-23T11:00:53.357Z,56.13
2017-11-23T11:03:21.635Z,56.04
2017-11-23T11:05:49.983Z,56.10
2017-11-23T11:08:18.281Z,56.15
2017-11-23T11:10:46.577Z,56.12
2017-11-23T11:13:14.848Z,56.11
2017-11-23T11:15:43.156Z,56.22
2017-11-23T11:18:11.440Z,56.02
2017-11-23T11:20:39.799Z,55.87
2017-11-23T11:23:08.096Z,55.99
2017-11-23T11:25:36.420Z,55.87
2017-11-23T11:28:04.718Z,56.22
2017-11-23T11:30:33.017Z,56.31
2017-11-23T11:33:01.292Z,56.14
2017-11-23T11:35:29.675Z,55.99
2017-11-23T11:37:57.907Z,55.97
2017-11-23T11:40:26.246Z,55.97
2017-11-23T11:42:54.578Z,55.95
2017-11-23T11:45:22.889Z,55.69
2017-11-23T11:47:51.181Z,55.77
2017-11-23T11:50:19.431Z,55.73
2017-11-23T11:52:47.756Z,55.88
2017-11-23T11:55:16.024Z,55.88
2017-11-23T11:57:44.336Z,56.21
2017-11-23T12:00:12.631Z,55.74
2017-11-23T12:02:40.881Z,55.78
2017-11-23T12:05:09.191Z,55.28
2017-11-23T12:07:37.541Z,55.31
2017-11-23T12:10:05.806Z,55.39
2017-11-23T12:12:34.121Z,55.27
2017-11-23T12:18:16.042Z,55.37
2017-11-23T12:20:56.161Z,55.66
2017-11-23T12:23:36.158Z,55.85
2017-11-23T12:26:05.312Z,56.06
2017-11-23T12:28:45.448Z,56.09
2017-11-23T12:31:13.716Z,56.24
2017-11-23T12:33:42.021Z,56.10
2017-11-23T12:36:10.296Z,56.14
2017-11-23T12:38:38.573Z,56.35
2017-11-23T12:41:06.876Z,56.35
2017-11-23T12:43:35.139Z,56.50
2017-11-23T12:46:03.434Z,56.67
2017-11-23T12:48:31.719Z,56.39
2017-11-23T12:50:59.969Z,56.26
2017-11-23T12:53:28.244Z,55.94
2017-11-23T12:55:56.508Z,55.39
2017-11-23T12:58:24.889Z,55.10
2017-11-23T13:00:53.173Z,54.93
2017-11-23T13:03:21.543Z,55.00
2017-11-23T13:05:49.828Z,55.17
2017-11-23T13:08:18.175Z,55.27
2017-11-23T13:10:46.487Z,55.40
2017-11-23T13:13:14.762Z,55.53
2017-11-23T13:15:43.116Z,55.73
2017-11-23T13:18:11.425Z,55.41
2017-11-23T13:20:40.510Z,54.55
2017-11-23T13:23:08.805Z,54.20
2017-11-23T13:25:37.173Z,53.78
2017-11-23T13:28:05.457Z,53.47
2017-11-23T13:30:33.766Z,53.59
2017-11-23T13:33:02.009Z,53.73
2017-11-23T13:35:30.307Z,53.83
2017-11-23T13:37:58.559Z,54.03
2017-11-23T13:40:26.845Z,54.11
2017-11-23T13:42:55.100Z,54.25
2017-11-23T13:45:23.412Z,54.62
2017-11-23T13:47:51.721Z,54.41
2017-11-23T13:50:20.173Z,54.57
2017-11-23T13:52:48.527Z,54.78
2017-11-23T13:55:16.760Z,54.90
2017-11-23T13:57:45.078Z,55.12
2017-11-23T14:00:13.363Z,55.39
2017-11-23T14:02:41.714Z,55.55
2017-11-23T14:05:10.028Z,55.66
2017-11-23T14:07:38.306Z,55.83
2017-11-23T14:10:06.654Z,56.00
2017-11-23T14:12:34.937Z,55.77
2017-11-23T14:15:03.246Z,56.04
2017-11-23T14:17:31.542Z,55.80
2017-11-23T14:19:59.817Z,56.02
2017-11-23T14:22:28.167Z,56.00
2017-11-23T14:24:57.199Z,55.98
2017-11-23T14:27:26.583Z,55.80
2017-11-23T14:29:54.817Z,56.28
2017-11-23T14:32:23.133Z,56.30
2017-11-23T14:34:51.378Z,56.27
2017-11-23T14:37:19.664Z,56.26
2017-11-23T14:39:47.944Z,56.19
2017-11-23T14:42:16.276Z,56.39
2017-11-23T14:44:44.570Z,56.61
2017-11-23T14:47:12.875Z,56.92
2017-11-23T14:49:41.130Z,56.85
2017-11-23T14:52:09.400Z,56.93
2017-11-23T14:54:37.785Z,56.80
2017-11-23T14:57:06.035Z,56.88
2017-11-23T14:59:34.334Z,56.99
2017-11-23T15:02:02.611Z,56.97
2017-11-23T15:04:30.903Z,57.10
2017-11-23T15:06:59.174Z,57.24
2017-11-23T15:09:27.442Z,57.05
2017-11-23T15:11:55.720Z,57.24
2017-11-23T15:14:23.983Z,57.12
2017-11-23T15:16:52.277Z,57.06
2017-11-23T15:19:20.660Z,56.99
2017-11-23T15:21:48.932Z,57.23
2017-11-23T15:24:17.301Z,57.44
2017-11-23T15:26:46.037Z,57.24
2017-11-23T15:29:14.296Z,57.34
2017-11-23T15:31:42.611Z,57.40
2017-11-23T15:34:10.901Z,57.39
2017-11-23T15:36:39.197Z,57.64
2017-11-23T15:39:07.492Z,57.56
2017-11-23T15:41:35.764Z,57.67
2017-11-23T15:44:04.483Z,57.87
2017-11-23T15:46:33.731Z,57.98
2017-11-23T15:49:02.012Z,58.14
2017-11-23T15:51:33.515Z,58.13
2017-11-23T15:54:01.836Z,58.39
2017-11-23T15:56:30.223Z,58.46
2017-11-23T15:58:58.499Z,58.26
2017-11-23T16:01:26.834Z,58.18
2017-11-23T16:03:55.104Z,58.48
2017-11-23T16:06:23.421Z,58.87
2017-11-23T16:08:51.698Z,58.84
2017-11-23T16:11:20.119Z,58.77
2017-11-23T16:13:48.453Z,58.94
2017-11-23T16:16:16.744Z,58.89
2017-11-23T16:18:45.338Z,59.15
2017-11-23T16:21:13.633Z,59.07
2017-11-23T16:23:41.956Z,59.25
2017-11-23T16:26:10.270Z,58.96
2017-11-23T16:28:39.153Z,58.99
2017-11-23T16:31:07.437Z,58.95
2017-11-23T16:33:35.701Z,58.70
2017-11-23T16:36:04.009Z,58.79
2017-11-23T16:41:47.662Z,58.57
2017-11-23T16:47:31.388Z,58.75
2017-11-23T16:50:06.042Z,58.65
2017-11-23T16:52:40.147Z,58.79
2017-11-23T16:55:14.315Z,58.69
2017-11-23T16:57:43.454Z,58.75
2017-11-23T17:03:19.524Z,58.69
2017-11-23T17:05:53.423Z,58.76
2017-11-23T17:08:21.722Z,58.87
2017-11-23T17:10:55.470Z,59.11
2017-11-23T17:13:29.207Z,59.15
2017-11-23T17:16:02.948Z,58.88
2017-11-23T17:18:36.765Z,58.96
2017-11-23T17:21:05.432Z,58.92
2017-11-23T17:23:33.761Z,58.82
2017-11-23T17:26:02.049Z,59.04
2017-11-23T17:28:30.448Z,59.19
2017-11-23T17:30:58.711Z,59.03
2017-11-23T17:33:26.968Z,59.09
2017-11-23T17:35:55.260Z,59.22
2017-11-23T17:38:23.528Z,59.25
2017-11-23T17:40:51.838Z,59.15
2017-11-23T17:43:20.111Z,58.91
2017-11-23T17:45:48.404Z,58.83
2017-11-23T17:48:16.673Z,58.94
2017-11-23T17:50:45.021Z,59.06
2017-11-23T17:53:13.305Z,59.11
2017-11-23T17:55:41.603Z,58.99
2017-11-23T17:58:09.881Z,58.89
2017-11-23T18:00:38.169Z,58.95
2017-11-23T18:03:06.478Z,58.94
2017-11-23T18:05:34.841Z,58.82
2017-11-23T18:08:04.128Z,58.73
2017-11-23T18:10:32.419Z,58.70
2017-11-23T18:13:00.716Z,58.96
2017-11-23T18:15:28.980Z,59.06
2017-11-23T18:17:57.269Z,59.02
2017-11-23T18:20:25.663Z,58.91
2017-11-23T18:22:53.930Z,58.88
2017-11-23T18:25:22.244Z,58.86
2017-11-23T18:27:50.597Z,58.96
2017-11-23T18:30:18.857Z,58.86
2017-11-23T18:32:47.187Z,58.93
2017-11-23T18:35:15.492Z,58.93
2017-11-23T18:37:43.751Z,59.00
2017-11-23T18:40:12.016Z,58.96
2017-11-23T18:42:40.330Z,58.93
2017-11-23T18:45:08.648Z,59.11
2017-11-23T18:47:36.920Z,59.11
2017-11-23T18:50:05.192Z,59.26
2017-11-23T18:52:33.473Z,59.21
2017-11-23T18:55:02.542Z,59.29
2017-11-23T18:57:30.844Z,59.27
2017-11-23T18:59:59.152Z,59.54
2017-11-23T19:02:27.415Z,59.42
2017-11-23T19:04:55.717Z,59.33
2017-11-23T19:07:24.010Z,59.38
2017-11-23T19:09:52.293Z,59.58
2017-11-23T19:12:20.590Z,59.61
2017-11-23T19:14:48.881Z,59.67
2017-11-23T19:17:17.196Z,59.51
2017-11-23T19:19:45.465Z,59.62
2017-11-23T19:22:13.749Z,59.66
2017-11-23T19:24:42.004Z,59.44
2017-11-23T19:27:10.305Z,59.45
2017-11-23T19:29:38.588Z,59.48
2017-11-23T19:32:06.885Z,59.56
2017-11-23T19:34:35.181Z,59.60
2017-11-23T19:37:03.482Z,59.69
2017-11-23T19:39:31.712Z,59.55
2017-11-23T19:42:00.008Z,59.80
2017-11-23T19:44:28.300Z,59.85
2017-11-23T19:46:56.589Z,59.78
2017-11-23T19:49:24.874Z,59.85
2017-11-23T19:51:53.129Z,59.86
2017-11-23T19:54:21.442Z,59.95
2017-11-23T19:56:49.725Z,60.07
2017-11-23T19:59:18.013Z,60.00
2017-11-23T20:01:46.322Z,60.03
2017-11-23T20:04:14.625Z,59.88
2017-11-23T20:06:43.058Z,59.93
2017-11-23T20:09:11.368Z,59.67
2017-11-23T20:11:39.609Z,59.64
2017-11-23T20:14:07.876Z,59.57
2017-11-23T20:16:36.200Z,59.51
2017-11-23T20:19:05.225Z,59.67
2017-11-23T20:21:33.525Z,59.72
2017-11-23T20:24:02.140Z,59.80
2017-11-23T20:26:30.485Z,59.61
2017-11-23T20:28:58.773Z,59.67
2017-11-23T20:31:27.052Z,59.84
2017-11-23T20:33:55.341Z,59.72
2017-11-23T20:36:23.621Z,59.77
2017-11-23T20:38:52.043Z,59.92
2017-11-23T20:41:21.115Z,60.28
2017-11-23T20:43:49.448Z,61.85
2017-11-23T20:46:17.709Z,62.66
2017-11-23T20:48:45.990Z,63.07
2017-11-23T20:51:14.287Z,64.04
2017-11-23T20:53:42.545Z,65.54
2017-11-23T20:56:10.949Z,66.50
2017-11-23T20:58:39.207Z,68.24
2017-11-23T21:01:07.905Z,69.06
2017-11-23T21:03:36.139Z,70.05
2017-11-23T21:06:05.094Z,70.12
2017-11-23T21:08:33.345Z,70.54
2017-11-23T21:11:01.656Z,69.78
2017-11-23T21:13:29.959Z,69.26
2017-11-23T21:15:58.270Z,69.33
2017-11-23T21:18:26.540Z,68.68
2017-11-23T21:20:54.834Z,68.22
2017-11-23T21:23:23.129Z,68.00
2017-11-23T21:25:51.390Z,67.84
2017-11-23T21:28:19.709Z,67.63
2017-11-23T21:30:48.323Z,67.33
2017-11-23T21:33:16.601Z,67.26
2017-11-23T21:35:44.909Z,67.94
2017-11-23T21:38:13.224Z,68.24
2017-11-23T21:40:41.472Z,68.44
2017-11-23T21:43:09.745Z,69.09
2017-11-23T21:45:38.034Z,70.22
2017-11-23T21:48:06.321Z,69.59
2017-11-23T21:50:34.584Z,70.02
2017-11-23T21:53:02.863Z,69.88
2017-11-23T21:55:31.121Z,69.77
2017-11-23T21:57:59.428Z,69.28
2017-11-23T22:00:27.724Z,68.98
2017-11-23T22:02:56.233Z,68.76
2017-11-23T22:05:24.471Z,68.36
2017-11-23T22:07:52.772Z,67.90
2017-11-23T22:10:21.024Z,67.62
2017-11-23T22:12:49.336Z,67.59
2017-11-23T22:15:17.640Z,67.58
2017-11-23T22:17:45.953Z,67.52
2017-11-23T22:20:14.204Z,67.17
2017-11-23T22:22:42.482Z,66.89
2017-11-23T22:25:10.790Z,66.98
2017-11-23T22:27:39.071Z,66.88
2017-11-23T22:30:07.476Z,66.23
2017-11-23T22:32:35.757Z,66.16
2017-11-23T22:35:04.228Z,66.41
2017-11-23T22:37:32.514Z,66.59
2017-11-23T22:40:00.782Z,65.82
2017-11-23T22:42:29.101Z,66.03
2017-11-23T22:44:57.454Z,65.89
2017-11-23T22:47:25.727Z,65.21
2017-11-23T22:49:54.012Z,65.20
2017-11-23T22:52:22.287Z,65.24
2017-11-23T22:54:50.544Z,65.40
2017-11-23T22:57:18.837Z,65.14
2017-11-23T22:59:47.096Z,65.57
2017-11-23T23:02:15.471Z,65.19
2017-11-23T23:04:43.722Z,65.30
2017-11-23T23:07:12.821Z,65.28
2017-11-23T23:09:41.104Z,65.40
2017-11-23T23:12:09.385Z,65.45
2017-11-23T23:14:37.670Z,65.35
2017-11-23T23:17:06.127Z,65.47
2017-11-23T23:19:34.488Z,65.25
2017-11-23T23:22:02.770Z,65.10
2017-11-23T23:24:31.076Z,65.07
2017-11-23T23:26:59.329Z,65.08
2017-11-23T23:29:27.646Z,65.20
2017-11-23T23:31:55.929Z,65.16
2017-11-23T23:34:24.196Z,65.29
2017-11-23T23:36:52.552Z,65.26
2017-11-23T23:39:20.799Z,65.62
2017-11-23T23:41:49.080Z,65.58
2017-11-23T23:44:17.376Z,65.72
2017-11-23T23:46:45.685Z,65.38
2017-11-23T23:49:13.998Z,65.25
2017-11-23T23:51:42.284Z,65.19
2017-11-23T23:54:10.579Z,65.21
2017-11-23T23:56:38.897Z,65.22
2017-11-23T23:59:07.252Z,65.49
